Time;durP1;ratioP1;P1;durP2;ratioP2;P2;SDS_P1;SDS_P2;PMS_P1;PMS_P2;Temp;Humidity;BMP_temperature;BMP_pressure;BME280_temperature;BME280_humidity;BME280_pressure;Samples;Min_cycle;Max_cycle;Signal;HPM_P1;HPM_P2
2022/12/02 00:00:19;;;;;;;7.43;3.93;;;6.10;98.00;;;;;;5031393;28;20861;-67
2022/12/02 00:02:46;;;;;;;7.13;3.93;;;6.10;98.00;;;;;;5031601;28;20456;-67
2022/12/02 00:05:28;;;;;;;7.23;4.30;;;6.20;98.00;;;;;;5031808;28;20490;-67
2022/12/02 00:07:59;;;;;;;7.40;3.40;;;6.30;98.00;;;;;;5031567;28;20553;-67
2022/12/02 00:10:30;;;;;;;13.10;5.07;;;6.30;98.00;;;;;;5031624;28;20485;-67
2022/12/02 00:13:11;;;;;;;6.20;3.57;;;6.20;98.00;;;;;;5031423;28;20458;-67
2022/12/02 00:15:41;;;;;;;11.67;4.73;;;6.10;98.00;;;;;;5031322;28;20455;-67
2022/12/02 00:18:10;;;;;;;11.07;4.30;;;6.30;98.00;;;;;;5031137;28;20458;-67
2022/12/02 00:20:39;;;;;;;6.57;3.17;;;6.20;98.00;;;;;;5031097;28;20546;-68
2022/12/02 00:23:06;;;;;;;6.60;3.90;;;6.00;98.00;;;;;;5031162;28;20502;-67
2022/12/02 00:25:35;;;;;;;11.67;3.70;;;6.00;98.00;;;;;;5031296;28;20485;-67
2022/12/02 00:28:02;;;;;;;7.10;3.93;;;6.10;98.00;;;;;;5031211;28;20518;-67
2022/12/02 00:30:29;;;;;;;7.30;3.50;;;6.10;98.00;;;;;;5030971;28;20464;-67
2022/12/02 00:32:56;;;;;;;15.23;3.77;;;6.10;98.00;;;;;;5030636;28;20463;-67
2022/12/02 00:35:24;;;;;;;9.57;3.67;;;6.10;98.00;;;;;;5013464;28;20464;-67
2022/12/02 00:37:53;;;;;;;10.20;4.23;;;6.10;98.00;;;;;;5031155;28;20525;-67
2022/12/02 00:40:20;;;;;;;9.93;3.10;;;6.00;98.00;;;;;;5030992;28;20470;-67
2022/12/02 00:42:47;;;;;;;7.60;4.03;;;6.00;98.00;;;;;;5030996;28;20459;-67
2022/12/02 00:47:59;;;;;;;12.70;4.77;;;6.10;98.00;;;;;;5031045;28;20511;-67
2022/12/02 00:50:26;;;;;;;6.10;3.73;;;6.00;98.00;;;;;;5030886;28;20470;-67
2022/12/02 00:52:55;;;;;;;7.90;3.33;;;6.00;98.00;;;;;;5031012;28;20468;-67
2022/12/02 00:55:22;;;;;;;9.83;4.27;;;6.00;98.00;;;;;;5030783;28;20465;-67
2022/12/02 00:57:49;;;;;;;8.20;4.20;;;6.00;98.00;;;;;;5030721;28;20513;-67
2022/12/02 01:00:16;;;;;;;9.53;3.97;;;5.90;98.00;;;;;;5030905;28;20458;-67
2022/12/02 01:02:43;;;;;;;9.87;4.13;;;6.00;98.00;;;;;;5031054;28;20467;-67
2022/12/02 01:05:10;;;;;;;4.47;3.47;;;5.90;98.00;;;;;;5030795;28;21067;-67
2022/12/02 01:07:37;;;;;;;9.27;4.07;;;5.90;98.00;;;;;;5030770;28;20452;-67
2022/12/02 01:10:07;;;;;;;6.77;3.70;;;5.90;98.00;;;;;;5030685;28;20455;-67
2022/12/02 01:12:34;;;;;;;8.50;4.27;;;5.80;98.00;;;;;;5030951;28;20503;-67
2022/12/02 01:15:03;;;;;;;9.47;3.70;;;5.80;98.00;;;;;;5030664;28;20980;-67
2022/12/02 01:17:30;;;;;;;6.97;3.83;;;5.80;98.00;;;;;;5030600;28;20466;-67
2022/12/02 01:19:57;;;;;;;5.53;3.23;;;5.90;98.00;;;;;;5030678;28;20465;-67
2022/12/02 01:22:24;;;;;;;5.50;3.53;;;6.00;98.00;;;;;;5013015;28;20896;-67
2022/12/02 01:24:51;;;;;;;8.07;3.80;;;5.90;98.00;;;;;;5030824;28;20484;-67
2022/12/02 01:27:21;;;;;;;13.27;4.40;;;6.00;98.00;;;;;;5030598;28;20859;-67
2022/12/02 01:29:49;;;;;;;10.80;3.80;;;5.90;98.00;;;;;;5013074;28;20458;-67
2022/12/02 01:32:18;;;;;;;13.20;4.40;;;6.00;98.00;;;;;;5030201;28;20471;-67
2022/12/02 01:34:45;;;;;;;7.60;3.70;;;6.00;98.00;;;;;;5030526;28;20453;-67
2022/12/02 01:37:12;;;;;;;9.33;3.93;;;6.00;98.00;;;;;;5030368;28;20463;-67
2022/12/02 01:39:41;;;;;;;8.63;5.13;;;5.90;98.00;;;;;;5030664;28;20828;-67
2022/12/02 01:42:09;;;;;;;8.73;3.70;;;5.90;98.00;;;;;;5030476;28;20973;-67
2022/12/02 01:44:38;;;;;;;5.30;3.40;;;5.80;98.00;;;;;;5013935;28;20532;-67
2022/12/02 01:47:06;;;;;;;6.93;4.00;;;5.90;98.00;;;;;;5033935;28;20466;-67
2022/12/02 01:49:33;;;;;;;5.30;3.23;;;5.90;98.00;;;;;;5033798;28;20462;-67
2022/12/02 01:52:00;;;;;;;4.87;2.97;;;5.80;98.00;;;;;;5034035;28;20472;-67
2022/12/02 01:54:28;;;;;;;8.50;3.90;;;5.80;98.00;;;;;;5034199;28;20549;-67
2022/12/02 01:56:55;;;;;;;7.83;4.30;;;5.90;98.00;;;;;;5034111;28;20454;-67
2022/12/02 01:59:23;;;;;;;7.27;4.30;;;5.90;98.00;;;;;;5033772;28;20468;-67
2022/12/02 02:01:52;;;;;;;12.63;4.60;;;5.80;98.00;;;;;;5033781;28;20455;-67
2022/12/02 02:04:20;;;;;;;7.17;3.73;;;5.80;98.00;;;;;;5016017;28;20516;-67
2022/12/02 02:06:48;;;;;;;8.10;4.37;;;5.80;98.00;;;;;;5033640;28;20486;-67
2022/12/02 02:09:15;;;;;;;5.87;3.30;;;5.70;98.00;;;;;;5033355;28;20478;-67
2022/12/02 02:11:42;;;;;;;7.43;4.10;;;5.70;98.00;;;;;;5033660;28;20458;-67
2022/12/02 02:14:12;;;;;;;11.03;4.43;;;5.70;98.00;;;;;;5033324;28;20459;-67
2022/12/02 02:16:40;;;;;;;4.50;3.00;;;5.60;98.00;;;;;;5033427;28;20951;-67
2022/12/02 02:19:13;;;;;;;14.40;3.47;;;5.70;98.00;;;;;;5033220;28;20463;-67
2022/12/02 02:21:45;;;;;;;9.40;3.50;;;5.70;98.00;;;;;;5033161;28;20472;-67
2022/12/02 02:24:15;;;;;;;6.23;3.73;;;5.70;98.00;;;;;;5033118;28;21018;-67
2022/12/02 02:26:42;;;;;;;9.90;3.93;;;5.70;98.00;;;;;;5015664;28;20490;-67
2022/12/02 02:29:10;;;;;;;9.03;4.00;;;5.80;98.00;;;;;;5015418;28;20461;-67
2022/12/02 02:31:37;;;;;;;8.73;4.00;;;5.80;98.00;;;;;;5033381;28;20483;-67
2022/12/02 02:34:05;;;;;;;11.73;4.63;;;5.80;98.00;;;;;;5033265;28;20462;-67
2022/12/02 02:36:33;;;;;;;8.13;3.80;;;5.70;98.00;;;;;;5033080;28;20462;-67
2022/12/02 02:39:02;;;;;;;5.90;2.90;;;5.70;98.00;;;;;;5033016;28;20832;-67
2022/12/02 02:41:31;;;;;;;11.20;3.90;;;5.60;98.00;;;;;;5032932;28;20529;-67
2022/12/02 02:43:58;;;;;;;6.40;3.77;;;5.70;98.00;;;;;;5032908;28;20969;-67
2022/12/02 02:46:27;;;;;;;14.93;4.17;;;5.70;98.00;;;;;;5015232;28;20481;-67
2022/12/02 02:48:55;;;;;;;9.73;4.30;;;5.70;98.00;;;;;;5033201;28;20872;-67
2022/12/02 02:51:22;;;;;;;7.33;3.30;;;5.70;98.00;;;;;;5032893;28;20455;-67
2022/12/02 02:53:49;;;;;;;6.37;2.97;;;5.70;98.00;;;;;;5015171;28;20477;-67
2022/12/02 02:56:17;;;;;;;9.03;3.83;;;5.70;98.00;;;;;;5032324;28;20490;-67
2022/12/02 02:58:46;;;;;;;6.87;4.00;;;5.70;98.00;;;;;;5032675;28;20463;-67
2022/12/02 03:01:16;;;;;;;8.07;3.20;;;5.70;98.00;;;;;;5032536;28;20475;-67
2022/12/02 03:03:47;;;;;;;7.63;4.23;;;5.70;98.00;;;;;;5032606;28;20459;-67
2022/12/02 03:06:15;;;;;;;5.67;3.80;;;5.70;98.00;;;;;;5032510;28;20493;-67
2022/12/02 03:08:46;;;;;;;10.43;3.83;;;5.60;98.00;;;;;;5032341;28;20472;-67
2022/12/02 03:11:13;;;;;;;8.07;4.47;;;5.60;98.00;;;;;;5032323;28;20463;-67
2022/12/02 03:13:43;;;;;;;7.23;5.30;;;5.70;98.00;;;;;;5014896;28;20451;-67
2022/12/02 03:16:14;;;;;;;5.33;3.60;;;5.60;98.00;;;;;;5032359;28;20950;-67
2022/12/02 03:18:44;;;;;;;9.70;4.73;;;5.80;98.00;;;;;;5032500;28;21165;-67
2022/12/02 03:21:12;;;;;;;4.07;2.80;;;5.70;98.00;;;;;;5031993;28;20473;-67
2022/12/02 03:23:39;;;;;;;6.37;3.30;;;5.70;98.00;;;;;;5032093;28;20459;-67
2022/12/02 03:26:07;;;;;;;15.57;4.37;;;5.70;98.00;;;;;;5031970;28;20895;-67
2022/12/02 03:28:35;;;;;;;9.23;4.03;;;5.70;98.00;;;;;;5030455;28;20463;-67
2022/12/02 03:31:02;;;;;;;3.80;2.77;;;5.70;98.00;;;;;;5032150;28;20899;-67
2022/12/02 03:33:31;;;;;;;5.97;3.37;;;5.70;98.00;;;;;;5032080;28;20942;-67
2022/12/02 03:35:58;;;;;;;8.87;4.70;;;5.80;98.00;;;;;;5031926;28;20875;-67
2022/12/02 03:38:26;;;;;;;8.37;3.63;;;5.80;98.00;;;;;;5031938;28;20948;-67
2022/12/02 03:40:53;;;;;;;8.37;3.97;;;5.80;98.00;;;;;;5032190;28;20534;-67
2022/12/02 03:43:20;;;;;;;7.40;3.50;;;5.80;98.00;;;;;;5031981;28;20532;-67
2022/12/02 03:45:47;;;;;;;8.00;3.97;;;5.80;98.00;;;;;;5031712;28;20485;-67
2022/12/02 03:48:19;;;;;;;6.33;3.40;;;5.80;98.00;;;;;;5031717;28;20454;-67
2022/12/02 03:50:49;;;;;;;10.77;5.03;;;5.70;98.00;;;;;;5031783;28;20459;-67
2022/12/02 03:53:16;;;;;;;7.53;3.60;;;5.70;98.00;;;;;;5032241;28;20459;-67
2022/12/02 03:55:44;;;;;;;6.17;3.83;;;5.70;98.00;;;;;;5032376;28;20462;-67
2022/12/02 03:58:11;;;;;;;10.40;3.30;;;5.70;98.00;;;;;;5032274;28;20957;-67
2022/12/02 04:00:39;;;;;;;7.43;3.70;;;5.70;98.00;;;;;;5032220;28;20460;-67
2022/12/02 04:03:06;;;;;;;6.30;3.63;;;5.90;98.00;;;;;;5031544;28;20465;-67
2022/12/02 04:05:34;;;;;;;10.07;4.53;;;5.90;98.00;;;;;;5031737;28;20484;-67
2022/12/02 04:08:03;;;;;;;7.47;3.67;;;5.90;98.00;;;;;;5030615;28;20466;-67
2022/12/02 04:10:30;;;;;;;6.90;3.30;;;6.00;98.00;;;;;;5031304;28;20463;-67
2022/12/02 04:12:57;;;;;;;8.23;3.90;;;5.90;98.00;;;;;;5031740;28;20460;-67
2022/12/02 04:15:24;;;;;;;7.57;3.80;;;6.00;98.00;;;;;;5031089;28;20459;-67
2022/12/02 04:17:51;;;;;;;7.37;3.20;;;6.00;98.00;;;;;;5031547;28;20827;-67
2022/12/02 04:20:18;;;;;;;8.40;3.27;;;5.90;98.00;;;;;;5031169;28;20465;-67
2022/12/02 04:22:45;;;;;;;4.83;2.97;;;5.80;98.00;;;;;;5031220;28;20477;-67
2022/12/02 04:25:14;;;;;;;8.87;3.90;;;5.90;98.00;;;;;;5013626;28;20461;-67
2022/12/02 04:27:41;;;;;;;4.10;3.17;;;5.80;98.00;;;;;;5031190;28;20463;-67
2022/12/02 04:30:09;;;;;;;7.83;3.70;;;5.80;98.00;;;;;;5031173;28;20512;-67
2022/12/02 04:32:36;;;;;;;14.23;4.10;;;5.70;98.00;;;;;;5031279;28;20462;-67
2022/12/02 04:35:03;;;;;;;7.97;3.60;;;5.70;98.00;;;;;;5031542;28;20496;-67
2022/12/02 04:37:30;;;;;;;7.93;4.70;;;5.80;98.00;;;;;;5031406;28;20465;-67
2022/12/02 04:39:58;;;;;;;10.00;4.50;;;5.80;98.00;;;;;;5031112;28;20462;-67
2022/12/02 04:42:26;;;;;;;5.10;3.50;;;5.80;98.00;;;;;;5030964;28;20458;-67
2022/12/02 04:44:53;;;;;;;5.00;3.00;;;5.80;98.00;;;;;;5031131;28;20481;-67
2022/12/02 04:47:20;;;;;;;5.60;3.90;;;5.80;98.00;;;;;;5031023;28;20491;-67
2022/12/02 04:49:47;;;;;;;11.07;4.47;;;5.70;98.00;;;;;;5030989;28;20470;-67
2022/12/02 04:52:15;;;;;;;6.40;3.70;;;5.70;98.00;;;;;;5030999;28;20457;-67
2022/12/02 04:54:42;;;;;;;4.97;3.03;;;5.60;98.00;;;;;;5030642;28;20560;-67
2022/12/02 04:57:12;;;;;;;7.90;4.23;;;5.60;98.00;;;;;;5030866;28;20487;-67
2022/12/02 04:59:41;;;;;;;18.93;3.77;;;5.60;98.00;;;;;;5030818;28;20457;-67
2022/12/02 05:04:49;;;;;;;9.33;3.73;;;5.70;98.00;;;;;;5029669;28;20786;-67
2022/12/02 05:07:16;;;;;;;10.20;4.17;;;5.70;98.00;;;;;;5013307;28;20483;-67
2022/12/02 05:09:43;;;;;;;7.93;4.57;;;5.70;98.00;;;;;;5030731;28;20468;-67
2022/12/02 05:12:10;;;;;;;11.57;3.67;;;5.70;98.00;;;;;;5030641;28;20454;-67
2022/12/02 05:14:38;;;;;;;10.07;4.30;;;5.80;98.00;;;;;;5013021;28;20512;-67
2022/12/02 05:17:06;;;;;;;4.00;2.90;;;5.80;98.00;;;;;;5030691;28;20459;-67
2022/12/02 05:19:33;;;;;;;5.10;3.00;;;5.70;98.00;;;;;;5033521;28;20517;-67
2022/12/02 05:22:00;;;;;;;5.43;3.30;;;5.70;98.00;;;;;;5016872;28;20995;-67
2022/12/02 05:24:28;;;;;;;7.30;3.67;;;5.70;98.00;;;;;;5034782;28;20466;-67
2022/12/02 05:26:55;;;;;;;9.70;4.10;;;5.70;98.00;;;;;;5017105;28;20946;-67
2022/12/02 05:29:23;;;;;;;5.90;3.20;;;5.60;98.00;;;;;;5034637;28;20465;-67
2022/12/02 05:31:50;;;;;;;6.67;3.07;;;5.60;98.00;;;;;;5034414;28;20465;-67
2022/12/02 05:34:18;;;;;;;8.83;3.03;;;5.60;98.00;;;;;;5016821;28;20543;-67
2022/12/02 05:36:47;;;;;;;6.00;3.83;;;5.60;98.00;;;;;;5034154;28;20940;-67
2022/12/02 05:39:14;;;;;;;8.47;3.80;;;5.60;98.00;;;;;;5016777;28;20456;-67
2022/12/02 05:41:42;;;;;;;8.93;4.77;;;5.60;98.00;;;;;;5034276;28;20884;-67
2022/12/02 05:44:20;;;;;;;7.87;3.40;;;5.50;98.00;;;;;;5033347;28;20465;-67
2022/12/02 05:46:49;;;;;;;5.83;3.67;;;5.50;98.00;;;;;;5033931;28;20495;-64
2022/12/02 05:49:20;;;;;;;7.80;3.70;;;5.50;98.00;;;;;;5033920;28;20450;-64
2022/12/02 05:51:51;;;;;;;8.67;4.63;;;5.60;98.00;;;;;;5033717;28;20828;-64
2022/12/02 05:54:20;;;;;;;9.73;4.17;;;5.60;98.00;;;;;;5034049;28;20470;-64
2022/12/02 05:56:47;;;;;;;6.77;3.33;;;5.50;98.00;;;;;;5033803;28;20539;-64
2022/12/02 05:59:18;;;;;;;10.37;4.40;;;5.50;98.00;;;;;;5033798;28;20460;-64
2022/12/02 06:01:49;;;;;;;8.77;3.70;;;5.60;98.00;;;;;;5033534;28;20489;-64
2022/12/02 06:04:18;;;;;;;6.07;3.17;;;5.60;98.00;;;;;;5033750;28;20542;-64
2022/12/02 06:06:46;;;;;;;6.40;3.77;;;5.50;98.00;;;;;;5033556;28;20492;-64
2022/12/02 06:09:16;;;;;;;4.33;3.00;;;5.50;98.00;;;;;;5033570;28;20858;-64
2022/12/02 06:11:46;;;;;;;5.33;3.27;;;5.50;98.00;;;;;;5033677;28;20555;-65
2022/12/02 06:14:17;;;;;;;6.67;3.43;;;5.50;98.00;;;;;;5033404;28;20464;-64
2022/12/02 06:16:47;;;;;;;5.67;3.13;;;5.40;98.00;;;;;;5033657;28;20460;-65
2022/12/02 06:19:34;;;;;;;10.23;3.83;;;5.50;98.00;;;;;;5033412;28;20457;-65
2022/12/02 06:22:02;;;;;;;6.50;3.60;;;5.50;98.00;;;;;;5032023;28;20469;-64
2022/12/02 06:24:33;;;;;;;7.63;3.60;;;5.50;98.00;;;;;;5033403;28;20465;-65
2022/12/02 06:27:02;;;;;;;8.60;3.10;;;5.40;98.00;;;;;;5033370;28;20486;-64
2022/12/02 06:29:32;;;;;;;7.13;3.73;;;5.40;98.00;;;;;;5032921;28;20545;-64
2022/12/02 06:32:04;;;;;;;10.67;4.50;;;5.50;98.00;;;;;;5033055;28;20500;-64
2022/12/02 06:34:38;;;;;;;7.67;4.20;;;5.40;98.00;;;;;;5016074;28;20493;-65
2022/12/02 06:37:14;;;;;;;6.40;2.63;;;5.40;98.00;;;;;;5033032;28;20466;-65
2022/12/02 06:39:42;;;;;;;11.40;4.57;;;5.50;98.00;;;;;;5033017;28;20498;-65
2022/12/02 06:42:20;;;;;;;7.40;3.30;;;5.50;98.00;;;;;;5032937;28;20497;-64
2022/12/02 06:45:05;;;;;;;6.10;3.23;;;5.60;98.00;;;;;;5033003;28;20551;-65
2022/12/02 06:47:48;;;;;;;6.47;3.60;;;5.70;98.00;;;;;;5032978;28;20486;-64
2022/12/02 06:50:34;;;;;;;10.53;3.77;;;5.70;98.00;;;;;;5032716;28;20469;-64
2022/12/02 06:53:24;;;;;;;6.63;3.07;;;5.70;98.00;;;;;;5031413;28;20473;-65
2022/12/02 06:55:54;;;;;;;5.67;3.07;;;5.80;98.00;;;;;;5032462;28;20548;-64
2022/12/02 06:58:28;;;;;;;8.50;3.60;;;5.80;98.00;;;;;;5032603;28;20453;-65
2022/12/02 07:01:21;;;;;;;5.73;3.63;;;5.70;98.00;;;;;;5032553;28;20997;-64
2022/12/02 07:04:08;;;;;;;6.47;2.80;;;5.60;98.00;;;;;;5032554;28;20519;-64
2022/12/02 07:06:39;;;;;;;6.70;3.30;;;5.60;98.00;;;;;;5001842;28;20543;-64
2022/12/02 07:09:16;;;;;;;7.90;3.30;;;5.60;98.00;;;;;;5032478;28;20466;-64
2022/12/02 07:11:53;;;;;;;11.67;4.13;;;5.50;98.00;;;;;;5032432;28;20461;-65
2022/12/02 07:14:39;;;;;;;9.40;4.27;;;5.50;98.00;;;;;;5032449;28;20540;-65
2022/12/02 07:17:23;;;;;;;8.43;2.90;;;5.50;98.00;;;;;;5032626;28;20466;-65
2022/12/02 07:19:56;;;;;;;3.40;2.50;;;5.50;98.00;;;;;;5016704;28;20495;-65
2022/12/02 07:22:31;;;;;;;9.80;4.50;;;5.50;98.00;;;;;;5032036;28;20462;-65
2022/12/02 07:25:18;;;;;;;10.23;3.40;;;5.50;98.00;;;;;;5031937;28;20950;-65
2022/12/02 07:27:49;;;;;;;8.27;3.27;;;5.50;98.00;;;;;;5032049;28;20887;-67
2022/12/02 07:30:24;;;;;;;7.00;3.67;;;5.50;98.00;;;;;;5032015;28;20460;-67
2022/12/02 07:32:51;;;;;;;5.30;3.20;;;5.40;98.00;;;;;;5032026;28;20463;-63
2022/12/02 07:35:18;;;;;;;6.07;3.17;;;5.40;98.00;;;;;;5031862;28;20455;-63
2022/12/02 07:37:47;;;;;;;4.33;3.13;;;5.50;98.00;;;;;;5031922;28;20462;-63
2022/12/02 07:40:17;;;;;;;5.10;3.33;;;5.50;98.00;;;;;;5031717;28;20456;-63
2022/12/02 07:42:45;;;;;;;4.30;2.73;;;5.50;98.00;;;;;;5030921;28;20455;-63
2022/12/02 07:45:16;;;;;;;5.87;3.10;;;5.60;98.00;;;;;;5031720;28;20544;-63
2022/12/02 07:47:43;;;;;;;8.37;4.33;;;5.60;98.00;;;;;;5031661;28;20483;-63
2022/12/02 07:50:12;;;;;;;7.23;3.67;;;5.60;98.00;;;;;;5031526;28;20454;-63
2022/12/02 07:52:39;;;;;;;4.90;3.00;;;5.50;98.00;;;;;;5031755;28;20463;-63
2022/12/02 07:55:09;;;;;;;7.43;4.07;;;5.50;98.00;;;;;;5031585;28;20517;-63
2022/12/02 07:57:36;;;;;;;10.60;4.40;;;5.60;98.00;;;;;;5031665;28;20468;-63
2022/12/02 08:00:04;;;;;;;8.07;3.67;;;5.60;98.00;;;;;;5031510;28;20509;-63
2022/12/02 08:02:32;;;;;;;5.60;2.80;;;5.60;98.00;;;;;;5031462;28;20828;-63
2022/12/02 08:05:00;;;;;;;4.77;2.67;;;5.60;98.00;;;;;;5014068;28;20953;-63
2022/12/02 08:07:27;;;;;;;10.47;4.97;;;5.70;98.00;;;;;;5031521;28;20876;-63
2022/12/02 08:09:56;;;;;;;5.07;3.80;;;5.70;98.00;;;;;;5031731;28;20881;-63
2022/12/02 08:12:25;;;;;;;7.00;3.00;;;5.80;98.00;;;;;;5014101;28;20465;-63
2022/12/02 08:14:52;;;;;;;5.10;2.37;;;5.70;98.00;;;;;;5031326;28;20478;-63
2022/12/02 08:17:19;;;;;;;8.30;2.93;;;5.60;98.00;;;;;;5031281;28;20800;-63
2022/12/02 08:19:46;;;;;;;4.80;2.80;;;5.60;98.00;;;;;;5031356;28;20464;-63
2022/12/02 08:22:13;;;;;;;6.60;3.97;;;5.70;98.00;;;;;;5031151;28;20464;-63
2022/12/02 08:24:40;;;;;;;12.00;2.90;;;5.60;98.00;;;;;;5031364;28;20461;-63
2022/12/02 08:27:07;;;;;;;14.47;5.33;;;5.60;98.00;;;;;;5031128;28;20483;-63
2022/12/02 08:29:36;;;;;;;6.80;3.13;;;5.70;98.00;;;;;;5031203;28;20944;-61
2022/12/02 08:32:04;;;;;;;5.90;3.97;;;5.70;98.00;;;;;;5030957;28;20464;-60
2022/12/02 08:34:31;;;;;;;6.60;3.20;;;5.80;98.00;;;;;;5031167;28;20466;-60
2022/12/02 08:36:58;;;;;;;4.83;3.13;;;6.00;98.00;;;;;;5030940;28;20455;-60
2022/12/02 08:39:25;;;;;;;8.80;4.40;;;6.00;98.00;;;;;;5025304;28;20506;-61
2022/12/02 08:41:52;;;;;;;3.27;2.87;;;5.90;98.00;;;;;;5008193;28;20467;-61
2022/12/02 08:44:19;;;;;;;9.00;3.10;;;6.00;98.00;;;;;;5008712;28;20487;-61
2022/12/02 08:46:47;;;;;;;4.33;2.40;;;6.00;98.00;;;;;;5008648;28;20890;-61
2022/12/02 08:49:14;;;;;;;8.20;3.70;;;5.90;98.00;;;;;;5007065;28;20469;-62
2022/12/02 08:51:42;;;;;;;6.50;4.00;;;5.90;98.00;;;;;;5008165;28;20964;-61
2022/12/02 08:54:09;;;;;;;9.00;3.20;;;6.00;98.00;;;;;;5010874;28;20462;-61
2022/12/02 08:56:36;;;;;;;5.13;2.97;;;5.90;98.00;;;;;;5012278;28;20459;-61
2022/12/02 08:59:03;;;;;;;5.33;3.10;;;5.90;98.00;;;;;;5012616;28;20855;-61
2022/12/02 09:01:30;;;;;;;5.23;3.17;;;5.80;98.00;;;;;;5012430;28;20451;-61
2022/12/02 09:03:59;;;;;;;8.23;4.20;;;5.70;98.00;;;;;;5012564;28;20489;-62
2022/12/02 09:06:26;;;;;;;6.80;3.13;;;5.80;98.00;;;;;;5012380;28;20516;-61
2022/12/02 09:08:53;;;;;;;8.13;4.07;;;5.80;98.00;;;;;;5012234;28;20491;-61
2022/12/02 09:11:21;;;;;;;6.17;3.20;;;5.80;98.00;;;;;;5012526;28;20657;-61
2022/12/02 09:13:48;;;;;;;7.00;3.10;;;5.80;98.00;;;;;;5012488;28;20540;-61
2022/12/02 09:16:16;;;;;;;5.43;3.07;;;5.90;98.00;;;;;;5012639;28;20466;-61
2022/12/02 09:18:43;;;;;;;10.23;3.90;;;5.80;98.00;;;;;;5013679;28;20456;-62
2022/12/02 09:21:11;;;;;;;7.37;3.93;;;5.80;98.00;;;;;;5011979;28;20464;-65
2022/12/02 09:23:38;;;;;;;8.27;3.53;;;5.80;98.00;;;;;;5012626;28;20453;-63
2022/12/02 09:26:06;;;;;;;8.53;2.90;;;5.80;98.00;;;;;;4995084;28;20921;-64
2022/12/02 09:28:33;;;;;;;11.77;3.50;;;5.80;98.00;;;;;;5011456;28;20496;-63
2022/12/02 09:31:00;;;;;;;9.73;4.43;;;5.70;98.00;;;;;;5012318;28;20460;-64
2022/12/02 09:33:27;;;;;;;5.93;2.90;;;5.90;98.00;;;;;;5012155;28;20832;-63
2022/12/02 09:35:54;;;;;;;6.40;3.03;;;5.90;98.00;;;;;;5012164;28;20467;-64
2022/12/02 09:38:30;;;;;;;8.73;3.43;;;6.00;98.00;;;;;;5011919;28;20880;-65
2022/12/02 09:40:57;;;;;;;6.30;2.73;;;6.10;98.00;;;;;;5004113;28;20524;-64
2022/12/02 09:43:24;;;;;;;9.33;3.63;;;6.10;98.00;;;;;;5011793;28;20456;-64
2022/12/02 09:45:51;;;;;;;6.40;2.83;;;6.10;98.00;;;;;;5011556;28;21030;-66
2022/12/02 09:48:18;;;;;;;4.40;2.73;;;6.30;98.00;;;;;;5012595;28;20548;-64
2022/12/02 09:50:45;;;;;;;5.17;2.33;;;6.30;98.00;;;;;;5009857;28;20470;-64
2022/12/02 09:53:14;;;;;;;2.93;2.20;;;6.20;98.00;;;;;;5012319;28;21016;-64
2022/12/02 09:55:43;;;;;;;3.53;2.30;;;6.30;98.00;;;;;;5012048;28;20465;-64
2022/12/02 09:58:14;;;;;;;2.80;2.30;;;6.20;98.00;;;;;;5012558;28;20459;-64
2022/12/02 10:00:41;;;;;;;3.97;2.77;;;6.10;98.00;;;;;;5012089;28;20481;-63
2022/12/02 10:03:10;;;;;;;2.20;1.73;;;6.20;98.00;;;;;;5012218;28;20838;-64
2022/12/02 10:05:38;;;;;;;2.43;2.07;;;6.00;98.00;;;;;;5010576;28;20464;-64
2022/12/02 10:08:12;;;;;;;2.37;1.83;;;5.90;98.00;;;;;;5011914;28;20502;-65
2022/12/02 10:10:41;;;;;;;3.40;2.40;;;5.90;98.00;;;;;;5011635;28;20467;-64
2022/12/02 10:13:13;;;;;;;2.73;1.80;;;5.90;98.00;;;;;;5011183;28;20462;-65
2022/12/02 10:15:41;;;;;;;4.50;2.60;;;5.80;98.00;;;;;;5008385;28;20906;-64
2022/12/02 10:18:12;;;;;;;3.50;2.33;;;5.80;98.00;;;;;;5011042;28;20464;-64
2022/12/02 10:20:39;;;;;;;4.40;2.37;;;5.80;98.00;;;;;;5010346;28;20469;-64
2022/12/02 10:23:14;;;;;;;6.70;2.20;;;5.70;98.00;;;;;;5011214;28;20461;-64
2022/12/02 10:25:45;;;;;;;5.07;2.40;;;5.70;98.00;;;;;;5011332;28;20464;-63
2022/12/02 10:28:26;;;;;;;4.43;2.27;;;5.90;98.00;;;;;;5011507;28;20557;-64
2022/12/02 10:30:56;;;;;;;3.20;1.83;;;6.00;98.00;;;;;;5011598;28;20459;-64
2022/12/02 10:33:25;;;;;;;3.53;2.73;;;5.90;98.00;;;;;;5011527;28;20827;-64
2022/12/02 10:35:57;;;;;;;4.27;2.63;;;5.80;98.00;;;;;;5011323;28;20463;-63
2022/12/02 10:38:33;;;;;;;5.10;2.57;;;5.80;98.00;;;;;;5011486;28;20460;-64
2022/12/02 10:41:18;;;;;;;5.20;2.80;;;5.70;98.00;;;;;;5011387;28;20473;-63
2022/12/02 10:44:15;;;;;;;2.30;2.10;;;5.70;98.00;;;;;;5011513;28;20463;-63
2022/12/02 10:46:43;;;;;;;4.27;2.53;;;5.90;98.00;;;;;;5009521;28;20846;-63
2022/12/02 10:49:34;;;;;;;5.20;3.20;;;5.90;98.00;;;;;;5010017;28;20577;-65
2022/12/02 10:52:07;;;;;;;6.00;2.60;;;5.90;98.00;;;;;;5011289;28;20538;-64
2022/12/02 10:54:36;;;;;;;4.97;2.60;;;5.90;98.00;;;;;;5011453;28;20457;-63
2022/12/02 10:57:03;;;;;;;3.03;2.27;;;5.80;98.00;;;;;;5010964;28;20462;-64
2022/12/02 10:59:36;;;;;;;5.87;2.80;;;5.80;98.00;;;;;;5010480;28;20554;-64
2022/12/02 11:02:03;;;;;;;8.13;2.47;;;5.80;98.00;;;;;;4993442;28;21190;-63
2022/12/02 11:04:32;;;;;;;5.97;4.00;;;5.80;98.00;;;;;;5010802;28;20458;-64
2022/12/02 11:07:00;;;;;;;3.10;2.13;;;5.90;98.00;;;;;;4974179;28;20467;-63
2022/12/02 11:09:27;;;;;;;7.20;3.40;;;6.00;98.00;;;;;;5008754;28;20497;-63
2022/12/02 11:12:15;;;;;;;6.70;2.87;;;5.90;98.00;;;;;;5010603;28;20508;-63
2022/12/02 11:14:56;;;;;;;5.93;3.87;;;5.90;98.00;;;;;;5009196;28;20865;-64
2022/12/02 11:17:48;;;;;;;6.93;3.57;;;6.00;98.00;;;;;;5008515;28;20551;-64
2022/12/02 11:20:36;;;;;;;6.07;2.50;;;5.90;98.00;;;;;;5010546;28;20471;-63
2022/12/02 11:23:24;;;;;;;5.23;2.43;;;6.00;98.00;;;;;;5010472;28;20520;-63
2022/12/02 11:26:08;;;;;;;4.93;3.20;;;6.20;98.00;;;;;;5010253;28;21005;-64
2022/12/02 11:28:39;;;;;;;7.07;3.77;;;6.20;98.00;;;;;;5010267;28;20491;-64
2022/12/02 11:31:22;;;;;;;3.23;2.37;;;6.30;98.00;;;;;;5010396;28;20622;-63
2022/12/02 11:34:26;;;;;;;6.90;2.63;;;6.30;98.00;;;;;;5010281;28;20464;-63
2022/12/02 11:37:32;;;;;;;4.33;2.33;;;6.30;98.00;;;;;;5010745;28;20469;-64
2022/12/02 11:40:01;;;;;;;4.33;2.53;;;6.40;98.00;;;;;;5010297;28;20554;-63
2022/12/02 11:42:29;;;;;;;6.50;2.57;;;6.50;98.00;;;;;;5010313;28;20466;-63
2022/12/02 11:45:13;;;;;;;3.53;2.23;;;6.50;98.00;;;;;;5010419;28;20462;-63
2022/12/02 11:47:45;;;;;;;5.97;3.20;;;6.50;98.00;;;;;;5010154;28;20538;-63
2022/12/02 11:50:25;;;;;;;7.53;2.70;;;6.50;98.00;;;;;;5007456;28;20458;-63
2022/12/02 11:52:56;;;;;;;4.30;2.70;;;6.50;98.00;;;;;;5010063;28;20481;-63
2022/12/02 11:55:26;;;;;;;3.00;1.77;;;6.50;98.00;;;;;;4991854;28;20456;-63
2022/12/02 11:57:56;;;;;;;4.53;2.60;;;6.40;98.00;;;;;;5010148;28;20948;-63
2022/12/02 12:00:29;;;;;;;5.40;3.37;;;6.50;98.00;;;;;;5009528;28;20456;-63
2022/12/02 12:03:10;;;;;;;7.77;3.17;;;6.30;98.00;;;;;;4993348;28;20471;-64
2022/12/02 12:05:37;;;;;;;4.63;2.80;;;6.10;98.00;;;;;;5009878;28;20467;-63
2022/12/02 12:08:04;;;;;;;2.30;1.90;;;6.10;98.00;;;;;;5009627;28;20489;-63
2022/12/02 12:10:33;;;;;;;6.23;2.63;;;6.10;98.00;;;;;;5009532;28;20983;-64
2022/12/02 12:13:21;;;;;;;3.30;2.47;;;6.10;98.00;;;;;;5009731;28;20508;-64
2022/12/02 12:15:54;;;;;;;4.50;1.60;;;6.00;98.00;;;;;;5003376;28;20455;-64
2022/12/02 12:18:44;;;;;;;7.80;2.67;;;6.00;98.00;;;;;;5009470;28;20457;-63
2022/12/02 12:21:13;;;;;;;3.70;1.90;;;6.10;98.00;;;;;;5009366;28;20477;-63
2022/12/02 12:23:42;;;;;;;3.37;1.73;;;6.10;98.00;;;;;;5009706;28;20478;-63
2022/12/02 12:26:29;;;;;;;7.03;3.13;;;6.10;98.00;;;;;;5009596;28;20466;-63
2022/12/02 12:29:03;;;;;;;2.23;1.50;;;6.30;98.00;;;;;;5009126;28;20574;-61
2022/12/02 12:31:30;;;;;;;4.40;2.53;;;6.40;98.00;;;;;;5009436;28;20466;-62
2022/12/02 12:33:59;;;;;;;3.20;2.30;;;6.50;98.00;;;;;;5009463;28;20460;-63
2022/12/02 12:36:26;;;;;;;6.43;2.13;;;6.40;98.00;;;;;;5009398;28;20973;-62
2022/12/02 12:38:53;;;;;;;4.10;2.13;;;6.40;98.00;;;;;;5009639;28;20510;-61
2022/12/02 12:41:20;;;;;;;5.87;2.97;;;6.30;98.00;;;;;;5009907;28;20849;-62
2022/12/02 12:43:47;;;;;;;4.37;2.60;;;6.20;98.00;;;;;;5009632;28;20461;-62
2022/12/02 12:46:14;;;;;;;2.43;1.90;;;6.30;98.00;;;;;;5009684;28;20463;-64
2022/12/02 12:48:41;;;;;;;1.80;1.70;;;6.20;98.00;;;;;;5009532;28;20484;-64
2022/12/02 12:51:10;;;;;;;5.27;1.93;;;6.20;98.00;;;;;;5007156;28;20465;-64
2022/12/02 12:53:37;;;;;;;2.27;1.43;;;6.10;98.00;;;;;;5009641;28;20465;-64
2022/12/02 12:56:05;;;;;;;2.80;1.37;;;6.00;98.00;;;;;;5009487;28;20459;-64
2022/12/02 12:58:33;;;;;;;3.83;1.80;;;5.90;98.00;;;;;;5009518;28;20461;-65
2022/12/02 13:01:00;;;;;;;2.93;1.77;;;5.70;98.00;;;;;;4991439;28;20469;-65
2022/12/02 13:03:27;;;;;;;11.80;1.87;;;5.70;98.00;;;;;;5009508;28;20463;-65
2022/12/02 13:05:55;;;;;;;3.83;1.73;;;5.80;98.00;;;;;;5009307;28;20796;-64
2022/12/02 13:08:24;;;;;;;2.07;1.50;;;5.80;98.00;;;;;;5009425;28;20484;-64
2022/12/02 13:10:51;;;;;;;1.77;1.23;;;5.80;98.00;;;;;;5009045;28;20464;-65
2022/12/02 13:13:18;;;;;;;3.80;1.90;;;5.90;98.00;;;;;;5007710;28;20494;-64
2022/12/02 13:15:45;;;;;;;2.33;1.30;;;5.90;98.00;;;;;;4990453;28;20871;-65